createdAt,value
2022-10-17T00:02:27.105Z,11.02
2022-10-17T00:04:54.197Z,12.10
2022-10-17T00:07:21.253Z,11.80
2022-10-17T00:09:48.420Z,10.35
2022-10-17T00:12:15.475Z,8.50
2022-10-17T00:14:42.576Z,9.57
2022-10-17T00:17:09.674Z,10.13
2022-10-17T00:19:36.813Z,9.68
2022-10-17T00:22:03.869Z,8.70
2022-10-17T00:24:31.869Z,9.20
2022-10-17T00:26:59.049Z,9.25
2022-10-17T00:29:26.150Z,9.13
2022-10-17T00:31:57.322Z,8.88
2022-10-17T00:34:25.416Z,11.57
2022-10-17T00:36:52.987Z,8.25
2022-10-17T00:39:20.806Z,9.73
2022-10-17T00:41:48.067Z,8.38
2022-10-17T00:44:30.375Z,8.68
2022-10-17T00:47:11.843Z,7.90
2022-10-17T00:49:39.817Z,8.68
2022-10-17T00:52:15.576Z,9.88
2022-10-17T00:54:51.091Z,8.55
2022-10-17T00:57:18.641Z,8.60
2022-10-17T00:59:50.347Z,7.75
2022-10-17T01:02:19.757Z,9.75
2022-10-17T01:04:51.458Z,9.50
2022-10-17T01:07:18.732Z,8.13
2022-10-17T01:09:47.046Z,11.32
2022-10-17T01:12:34.376Z,9.05
2022-10-17T01:15:13.428Z,6.53
2022-10-17T01:17:49.344Z,8.27
2022-10-17T01:20:51.693Z,9.80
2022-10-17T01:23:38.504Z,11.20
2022-10-17T01:26:06.187Z,11.05
2022-10-17T01:28:56.812Z,8.60
2022-10-17T01:31:30.200Z,8.98
2022-10-17T01:34:21.335Z,8.75
2022-10-17T01:37:26.317Z,8.95
2022-10-17T01:40:07.521Z,7.57
2022-10-17T01:42:42.616Z,10.15
2022-10-17T01:45:25.741Z,9.63
2022-10-17T01:47:54.565Z,12.77
2022-10-17T01:50:29.749Z,8.23
2022-10-17T01:53:02.772Z,10.35
2022-10-17T01:55:39.963Z,14.02
2022-10-17T01:58:12.484Z,10.55
2022-10-17T02:00:42.996Z,10.05
2022-10-17T02:03:15.648Z,8.27
2022-10-17T02:05:45.023Z,12.85
2022-10-17T02:08:13.016Z,10.10
2022-10-17T02:11:11.308Z,9.48
2022-10-17T02:14:02.978Z,9.55
2022-10-17T02:16:38.853Z,12.50
2022-10-17T02:19:09.141Z,7.63
2022-10-17T02:22:30.233Z,7.80
2022-10-17T02:25:02.995Z,10.93
2022-10-17T02:27:48.923Z,11.10
2022-10-17T02:30:33.306Z,7.60
2022-10-17T02:33:06.909Z,28.60
2022-10-17T02:35:39.979Z,12.93
2022-10-17T02:38:09.971Z,10.82
2022-10-17T02:40:38.350Z,13.10
2022-10-17T02:43:05.838Z,15.82
2022-10-17T02:45:36.116Z,12.48
2022-10-17T02:48:28.124Z,11.93
2022-10-17T02:51:10.593Z,12.18
2022-10-17T02:53:57.883Z,13.10
2022-10-17T02:56:26.235Z,11.82
2022-10-17T02:58:57.667Z,10.23
2022-10-17T03:01:25.570Z,11.00
2022-10-17T03:04:05.750Z,11.88
2022-10-17T03:06:32.908Z,7.93
2022-10-17T03:09:00.010Z,12.45
2022-10-17T03:11:28.183Z,6.85
2022-10-17T03:13:55.338Z,7.57
2022-10-17T03:16:22.699Z,8.88
2022-10-17T03:18:50.276Z,10.77
2022-10-17T03:21:18.052Z,15.60
2022-10-17T03:23:45.553Z,22.52
2022-10-17T03:26:14.486Z,13.43
2022-10-17T03:28:41.638Z,8.60
2022-10-17T03:31:15.560Z,12.00
2022-10-17T03:33:44.255Z,9.55
2022-10-17T03:36:14.203Z,12.00
2022-10-17T03:38:42.742Z,19.75
2022-10-17T03:41:10.150Z,12.35
2022-10-17T03:43:39.957Z,11.10
2022-10-17T03:46:07.886Z,11.32
2022-10-17T03:48:36.045Z,14.07
2022-10-17T03:51:07.608Z,13.75
2022-10-17T03:53:39.815Z,9.93
2022-10-17T03:56:24.259Z,10.80
2022-10-17T03:59:02.438Z,10.32
2022-10-17T04:01:37.374Z,7.72
2022-10-17T04:04:04.651Z,13.93
2022-10-17T04:06:34.953Z,13.13
2022-10-17T04:09:02.820Z,13.40
2022-10-17T04:11:52.955Z,15.75
2022-10-17T04:14:21.594Z,12.07
2022-10-17T04:16:48.739Z,11.15
2022-10-17T04:19:20.256Z,11.85
2022-10-17T04:21:48.422Z,12.38
2022-10-17T04:24:15.935Z,13.40
2022-10-17T04:27:05.597Z,12.15
2022-10-17T04:29:36.724Z,14.00
2022-10-17T04:32:15.217Z,16.50
2022-10-17T04:34:52.096Z,11.88
2022-10-17T04:37:21.979Z,13.00
2022-10-17T04:39:51.272Z,12.07
2022-10-17T04:42:18.342Z,11.63
2022-10-17T04:44:45.758Z,11.18
2022-10-17T04:47:15.253Z,19.67
2022-10-17T04:49:43.167Z,20.25
2022-10-17T04:52:11.421Z,19.17
2022-10-17T04:54:42.373Z,15.82
2022-10-17T04:57:10.984Z,16.83
2022-10-17T04:59:40.105Z,21.77
2022-10-17T05:02:33.331Z,17.27
2022-10-17T05:05:02.462Z,12.27
2022-10-17T05:07:30.456Z,12.05
2022-10-17T05:10:10.196Z,12.57
2022-10-17T05:12:39.220Z,9.88
2022-10-17T05:15:07.194Z,10.77
2022-10-17T05:17:34.998Z,9.88
2022-10-17T05:20:02.216Z,12.30
2022-10-17T05:22:32.094Z,12.20
2022-10-17T05:25:00.440Z,12.75
2022-10-17T05:27:27.632Z,12.82
2022-10-17T05:29:55.094Z,9.18
2022-10-17T05:32:28.904Z,11.40
2022-10-17T05:34:56.148Z,11.38
2022-10-17T05:37:25.463Z,9.82
2022-10-17T05:39:55.474Z,9.50
2022-10-17T05:42:22.810Z,11.65
2022-10-17T05:44:50.180Z,11.02
2022-10-17T05:47:19.793Z,7.15
2022-10-17T05:49:51.384Z,10.00
2022-10-17T05:55:00.253Z,8.77
2022-10-17T05:57:27.842Z,9.45
2022-10-17T05:59:57.125Z,10.27
2022-10-17T06:02:24.321Z,9.98
2022-10-17T06:04:51.655Z,11.00
2022-10-17T06:07:21.003Z,15.85
2022-10-17T06:09:49.140Z,8.32
2022-10-17T06:12:16.383Z,14.50
2022-10-17T06:14:44.391Z,11.93
2022-10-17T06:17:16.090Z,11.10
2022-10-17T06:19:45.075Z,9.90
2022-10-17T06:22:14.780Z,8.20
2022-10-17T06:24:42.689Z,10.40
2022-10-17T06:27:12.126Z,10.52
2022-10-17T06:29:41.162Z,10.70
2022-10-17T06:32:11.112Z,13.25
2022-10-17T06:34:42.138Z,11.00
2022-10-17T06:37:10.047Z,10.73
2022-10-17T06:39:39.257Z,6.57
2022-10-17T06:42:11.407Z,11.48
2022-10-17T06:45:05.617Z,10.38
2022-10-17T06:47:40.256Z,10.98
2022-10-17T06:50:22.501Z,8.63
2022-10-17T06:52:59.847Z,9.40
2022-10-17T06:55:45.287Z,9.02
2022-10-17T06:58:19.052Z,7.70
2022-10-17T07:03:37.464Z,9.48
2022-10-17T07:06:04.797Z,8.48
2022-10-17T07:08:32.149Z,7.28
2022-10-17T07:11:14.250Z,9.38
2022-10-17T07:13:42.667Z,8.15
2022-10-17T07:16:10.643Z,7.57
2022-10-17T07:18:40.250Z,10.20
2022-10-17T07:21:08.896Z,9.07
2022-10-17T07:23:38.590Z,8.05
2022-10-17T07:26:09.280Z,8.13
2022-10-17T07:28:40.752Z,7.63
2022-10-17T07:31:24.342Z,10.18
2022-10-17T07:33:51.936Z,10.70
2022-10-17T07:36:19.565Z,10.93
2022-10-17T07:38:47.221Z,10.65
2022-10-17T07:41:19.219Z,9.55
2022-10-17T07:43:50.078Z,8.05
2022-10-17T07:46:21.403Z,9.02
2022-10-17T07:48:49.879Z,6.97
2022-10-17T07:51:20.227Z,12.38
2022-10-17T07:53:48.896Z,9.85
2022-10-17T07:56:16.610Z,9.20
2022-10-17T07:58:43.954Z,7.35
2022-10-17T08:01:15.597Z,7.97
2022-10-17T08:03:48.960Z,8.43
2022-10-17T08:06:16.139Z,10.90
2022-10-17T08:08:44.197Z,12.23
2022-10-17T08:11:13.777Z,8.98
2022-10-17T08:13:41.853Z,9.85
2022-10-17T08:16:11.415Z,8.95
2022-10-17T08:18:40.283Z,9.27
2022-10-17T08:21:08.572Z,9.25
2022-10-17T08:23:36.690Z,10.35
2022-10-17T08:26:05.933Z,12.70
2022-10-17T08:28:35.854Z,8.80
2022-10-17T08:31:14.684Z,11.60
2022-10-17T08:33:43.291Z,7.40
2022-10-17T08:36:13.043Z,11.25
2022-10-17T08:38:52.446Z,8.57
2022-10-17T08:41:42.071Z,6.95
2022-10-17T08:44:09.133Z,9.35
2022-10-17T08:46:39.597Z,7.93
2022-10-17T08:49:15.151Z,10.93
2022-10-17T08:51:52.853Z,7.88
2022-10-17T08:54:30.755Z,13.23
2022-10-17T08:56:57.906Z,12.77
2022-10-17T08:59:30.238Z,8.50
2022-10-17T09:02:30.171Z,9.65
2022-10-17T09:05:01.823Z,11.93
2022-10-17T09:07:41.859Z,7.05
2022-10-17T09:10:34.199Z,9.48
2022-10-17T09:13:17.324Z,7.90
2022-10-17T09:16:03.411Z,8.30
2022-10-17T09:18:33.376Z,8.48
2022-10-17T09:21:24.431Z,7.80
2022-10-17T09:24:03.777Z,7.75
2022-10-17T09:29:25.110Z,9.35
2022-10-17T09:32:04.113Z,9.20
2022-10-17T09:34:32.887Z,10.60
2022-10-17T09:37:01.650Z,13.07
2022-10-17T09:39:32.188Z,8.20
2022-10-17T09:42:03.226Z,10.30
2022-10-17T09:44:32.365Z,8.38
2022-10-17T09:47:17.936Z,7.28
2022-10-17T09:49:47.358Z,8.02
2022-10-17T09:52:16.717Z,10.77
2022-10-17T09:54:48.343Z,9.63
2022-10-17T09:57:17.428Z,10.32
2022-10-17T09:59:59.930Z,14.75
2022-10-17T10:02:30.079Z,9.38
2022-10-17T10:05:07.391Z,13.25
2022-10-17T10:07:39.322Z,7.47
2022-10-17T10:10:27.635Z,11.57
2022-10-17T10:13:23.027Z,7.72
2022-10-17T10:15:51.000Z,9.10
2022-10-17T10:18:27.342Z,10.35
2022-10-17T10:21:08.881Z,10.68
2022-10-17T10:23:41.380Z,11.98
2022-10-17T10:26:22.423Z,10.48
2022-10-17T10:28:54.309Z,13.55
2022-10-17T10:31:31.607Z,9.35
2022-10-17T10:34:01.296Z,10.57
2022-10-17T10:36:47.620Z,10.10
2022-10-17T10:39:29.603Z,10.90
2022-10-17T10:41:57.273Z,6.53
2022-10-17T10:44:27.341Z,17.45
2022-10-17T10:47:15.576Z,6.63
2022-10-17T10:49:43.577Z,13.95
2022-10-17T10:52:20.749Z,7.03
2022-10-17T10:54:58.225Z,13.90
2022-10-17T10:57:31.333Z,10.73
2022-10-17T11:00:13.024Z,8.50
2022-10-17T11:03:10.509Z,8.68
2022-10-17T11:06:00.761Z,8.23
2022-10-17T11:08:52.513Z,8.93
2022-10-17T11:11:31.777Z,7.60
2022-10-17T11:14:05.497Z,7.70
2022-10-17T11:16:45.316Z,6.80
2022-10-17T11:19:34.032Z,13.27
2022-10-17T11:22:05.583Z,8.65
2022-10-17T11:24:59.781Z,7.95
2022-10-17T11:27:29.879Z,7.55
2022-10-17T11:29:58.206Z,9.15
2022-10-17T11:32:32.674Z,7.93
2022-10-17T11:35:26.381Z,7.28
2022-10-17T11:38:25.404Z,7.03
2022-10-17T11:40:56.136Z,8.50
2022-10-17T11:43:32.575Z,8.00
2022-10-17T11:46:20.441Z,8.38
2022-10-17T11:48:59.868Z,7.28
2022-10-17T11:54:26.044Z,8.80
2022-10-17T11:57:11.663Z,12.57
2022-10-17T11:59:53.029Z,10.75
2022-10-17T12:02:32.370Z,12.63
2022-10-17T12:05:19.582Z,7.47
2022-10-17T12:08:06.228Z,7.05
2022-10-17T12:10:56.275Z,6.13
2022-10-17T12:13:29.397Z,8.95
2022-10-17T12:15:57.916Z,7.75
2022-10-17T12:18:27.452Z,8.90
2022-10-17T12:21:00.092Z,10.00
2022-10-17T12:23:29.574Z,10.93
2022-10-17T12:26:04.851Z,7.43
2022-10-17T12:28:38.219Z,6.45
2022-10-17T12:31:16.133Z,6.20
2022-10-17T12:33:46.301Z,12.80
2022-10-17T12:36:22.286Z,6.13
2022-10-17T12:38:52.117Z,6.18
2022-10-17T12:41:46.520Z,7.97
2022-10-17T12:44:14.003Z,6.80
2022-10-17T12:46:44.343Z,6.63
2022-10-17T12:49:48.436Z,11.15
2022-10-17T12:52:35.205Z,10.05
2022-10-17T12:55:11.957Z,7.10
2022-10-17T12:57:47.180Z,9.50
2022-10-17T13:00:32.944Z,5.47
2022-10-17T13:03:17.045Z,6.90
2022-10-17T13:05:56.850Z,7.47
2022-10-17T13:08:33.396Z,6.00
2022-10-17T13:11:02.840Z,5.97
2022-10-17T13:13:52.072Z,6.03
2022-10-17T13:16:40.888Z,6.28
2022-10-17T13:19:17.327Z,5.45
2022-10-17T13:21:58.752Z,6.18
2022-10-17T13:24:39.096Z,4.75
2022-10-17T13:27:22.386Z,4.90
2022-10-17T13:29:49.525Z,4.72
2022-10-17T13:32:16.972Z,5.57
2022-10-17T13:34:44.266Z,5.53
2022-10-17T13:37:15.755Z,5.47
2022-10-17T13:39:55.308Z,4.35
2022-10-17T13:42:27.970Z,5.10
2022-10-17T13:44:56.913Z,4.00
2022-10-17T13:47:27.763Z,7.43
2022-10-17T13:49:56.574Z,5.57
2022-10-17T13:52:30.838Z,4.35
2022-10-17T13:55:16.858Z,7.20
2022-10-17T13:57:44.800Z,3.53
2022-10-17T14:00:22.977Z,5.63
2022-10-17T14:02:50.114Z,4.65
2022-10-17T14:05:21.811Z,3.95
2022-10-17T14:08:11.472Z,4.18
2022-10-17T14:10:42.292Z,7.57
2022-10-17T14:13:22.815Z,4.70
2022-10-17T14:15:51.229Z,5.97
2022-10-17T14:18:22.048Z,5.47
2022-10-17T14:23:41.489Z,3.65
2022-10-17T14:26:28.795Z,6.10
2022-10-17T14:29:18.221Z,5.30
2022-10-17T14:31:45.479Z,4.65
2022-10-17T14:34:27.228Z,3.83
2022-10-17T14:36:55.417Z,4.88
2022-10-17T14:39:24.808Z,5.18
2022-10-17T14:41:53.286Z,6.10
2022-10-17T14:44:29.551Z,8.63
2022-10-17T14:47:18.298Z,5.88
2022-10-17T14:49:51.672Z,7.18
2022-10-17T14:52:19.108Z,8.45
2022-10-17T14:54:48.604Z,6.10
2022-10-17T14:57:15.881Z,8.10
2022-10-17T14:59:59.392Z,6.80
2022-10-17T15:02:29.881Z,8.95
2022-10-17T15:04:57.539Z,10.48
2022-10-17T15:07:24.982Z,8.52
2022-10-17T15:09:53.862Z,10.13
2022-10-17T15:12:25.232Z,8.23
2022-10-17T15:14:53.933Z,7.93
2022-10-17T15:17:24.846Z,7.32
2022-10-17T15:19:52.285Z,7.50
2022-10-17T15:22:19.503Z,9.80
2022-10-17T15:24:46.924Z,11.52
2022-10-17T15:27:32.736Z,6.40
2022-10-17T15:30:00.303Z,12.13
2022-10-17T15:32:27.401Z,10.85
2022-10-17T15:34:54.468Z,9.07
2022-10-17T15:37:25.705Z,7.93
2022-10-17T15:39:55.158Z,8.43
2022-10-17T15:42:31.624Z,8.10
2022-10-17T15:44:59.067Z,10.50
2022-10-17T15:47:33.800Z,8.73
2022-10-17T15:50:02.374Z,8.43
2022-10-17T15:52:30.709Z,10.20
2022-10-17T15:55:00.869Z,13.45
2022-10-17T15:57:36.186Z,12.57
2022-10-17T16:00:06.256Z,11.65
2022-10-17T16:02:36.540Z,12.32
2022-10-17T16:05:16.241Z,17.42
2022-10-17T16:07:46.181Z,39.28
2022-10-17T16:10:14.625Z,38.55
2022-10-17T16:12:42.425Z,42.38
2022-10-17T16:15:15.851Z,30.10
2022-10-17T16:17:43.930Z,32.28
2022-10-17T16:20:12.565Z,24.75
2022-10-17T16:22:42.216Z,18.55
2022-10-17T16:25:19.616Z,31.90
2022-10-17T16:27:48.479Z,54.95
2022-10-17T16:30:16.817Z,41.90
2022-10-17T16:32:43.966Z,33.67
2022-10-17T16:35:17.543Z,34.20
2022-10-17T16:37:44.659Z,34.72
2022-10-17T16:40:12.464Z,29.50
2022-10-17T16:42:39.716Z,31.48
2022-10-17T16:45:07.233Z,31.25
2022-10-17T16:47:34.515Z,30.60
2022-10-17T16:50:01.773Z,18.27
2022-10-17T16:52:30.114Z,16.05
2022-10-17T16:54:57.428Z,15.70
2022-10-17T16:57:24.499Z,17.48
2022-10-17T16:59:52.193Z,17.83
2022-10-17T17:02:21.361Z,19.30
2022-10-17T17:04:48.701Z,18.38
2022-10-17T17:07:18.128Z,19.88
2022-10-17T17:09:45.295Z,13.63
2022-10-17T17:12:12.604Z,22.10
2022-10-17T17:14:39.779Z,15.32
2022-10-17T17:17:09.581Z,15.07
2022-10-17T17:19:42.556Z,13.48
2022-10-17T17:22:09.544Z,14.23
2022-10-17T17:24:36.684Z,15.10
2022-10-17T17:27:03.843Z,15.38
2022-10-17T17:29:30.998Z,29.92
2022-10-17T17:31:58.212Z,15.63
2022-10-17T17:34:25.567Z,14.82
2022-10-17T17:36:52.651Z,12.93
2022-10-17T17:39:19.692Z,17.63
2022-10-17T17:41:47.042Z,11.55
2022-10-17T17:44:16.686Z,18.00
2022-10-17T17:46:45.090Z,14.30
2022-10-17T17:49:12.631Z,15.35
2022-10-17T17:51:41.583Z,14.70
2022-10-17T17:54:11.610Z,11.82
2022-10-17T17:56:39.554Z,13.45
2022-10-17T17:59:06.993Z,11.13
2022-10-17T18:01:38.274Z,8.77
2022-10-17T18:04:08.683Z,17.17
2022-10-17T18:06:37.624Z,12.85
2022-10-17T18:09:05.786Z,15.23
2022-10-17T18:11:33.551Z,15.20
2022-10-17T18:14:06.544Z,10.45
2022-10-17T18:16:36.197Z,17.45
2022-10-17T18:19:07.157Z,16.10
2022-10-17T18:21:35.586Z,11.02
2022-10-17T18:24:04.522Z,14.73
2022-10-17T18:26:31.764Z,14.57
2022-10-17T18:28:58.903Z,12.82
2022-10-17T18:31:32.151Z,18.40
2022-10-17T18:34:00.300Z,15.27
2022-10-17T18:36:28.883Z,13.63
2022-10-17T18:38:56.686Z,13.20
2022-10-17T18:41:25.746Z,13.45
2022-10-17T18:43:57.692Z,16.55
2022-10-17T18:46:27.941Z,16.48
2022-10-17T18:48:55.536Z,20.10
2022-10-17T18:51:24.482Z,21.38
2022-10-17T18:53:53.871Z,17.17
2022-10-17T18:56:21.999Z,14.68
2022-10-17T18:58:49.155Z,15.18
2022-10-17T19:01:19.313Z,17.55
2022-10-17T19:03:48.026Z,25.05
2022-10-17T19:06:17.575Z,13.43
2022-10-17T19:08:45.744Z,23.17
2022-10-17T19:11:18.624Z,19.38
2022-10-17T19:16:24.897Z,25.50
2022-10-17T19:18:54.358Z,27.33
2022-10-17T19:21:22.408Z,21.20
2022-10-17T19:23:58.031Z,13.68
2022-10-17T19:26:26.908Z,20.05
2022-10-17T19:28:54.180Z,13.40
2022-10-17T19:31:26.784Z,18.58
2022-10-17T19:33:55.814Z,15.93
2022-10-17T19:36:28.887Z,14.60
2022-10-17T19:38:59.869Z,12.88
2022-10-17T19:41:27.045Z,13.15
2022-10-17T19:43:54.153Z,15.90
2022-10-17T19:46:23.558Z,13.85
2022-10-17T19:48:51.363Z,24.52
2022-10-17T19:51:20.731Z,15.95
2022-10-17T19:53:48.163Z,15.73
2022-10-17T19:56:18.624Z,14.07
2022-10-17T19:58:47.455Z,16.23
2022-10-17T20:01:17.973Z,16.63
2022-10-17T20:03:45.278Z,15.05
2022-10-17T20:06:12.999Z,14.55
2022-10-17T20:08:41.154Z,18.02
2022-10-17T20:11:16.958Z,18.52
2022-10-17T20:13:44.955Z,26.83
2022-10-17T20:16:14.777Z,17.33
2022-10-17T20:18:42.334Z,21.25
2022-10-17T20:21:12.248Z,16.98
2022-10-17T20:23:40.470Z,25.55
2022-10-17T20:26:25.791Z,23.77
2022-10-17T20:28:53.904Z,21.13
2022-10-17T20:31:21.633Z,32.70
2022-10-17T20:33:48.776Z,38.00
2022-10-17T20:36:16.662Z,44.90
2022-10-17T20:38:43.731Z,21.85
2022-10-17T20:41:10.981Z,20.65
2022-10-17T20:43:38.420Z,36.42
2022-10-17T20:46:22.698Z,37.25
2022-10-17T20:51:21.939Z,28.40
2022-10-17T20:53:49.206Z,25.23
2022-10-17T20:56:28.660Z,29.92
2022-10-17T20:59:01.318Z,17.98
2022-10-17T21:01:30.090Z,15.70
2022-10-17T21:04:06.138Z,20.85
2022-10-17T21:06:43.496Z,15.45
2022-10-17T21:09:10.555Z,18.20
2022-10-17T21:11:37.810Z,20.33
2022-10-17T21:14:06.379Z,17.98
2022-10-17T21:16:35.462Z,21.02
2022-10-17T21:19:04.511Z,17.02
2022-10-17T21:21:34.272Z,15.13
2022-10-17T21:24:04.945Z,17.58
2022-10-17T21:26:33.987Z,16.13
2022-10-17T21:29:05.895Z,14.90
2022-10-17T21:31:36.262Z,15.13
2022-10-17T21:34:25.565Z,20.70
2022-10-17T21:36:53.029Z,19.20
2022-10-17T21:39:20.293Z,21.48
2022-10-17T21:41:47.637Z,18.10
2022-10-17T21:44:17.580Z,22.67
2022-10-17T21:46:45.438Z,20.13
2022-10-17T21:49:14.439Z,16.88
2022-10-17T21:51:42.358Z,19.38
2022-10-17T21:54:09.584Z,18.50
2022-10-17T21:56:37.143Z,22.50
2022-10-17T21:59:05.333Z,25.70
2022-10-17T22:01:41.617Z,20.27
2022-10-17T22:04:12.064Z,19.38
2022-10-17T22:06:41.249Z,23.27
2022-10-17T22:09:21.624Z,19.95
2022-10-17T22:11:52.055Z,25.02
2022-10-17T22:14:20.853Z,23.05
2022-10-17T22:16:49.230Z,26.40
2022-10-17T22:19:21.167Z,25.60
2022-10-17T22:21:48.521Z,23.83
2022-10-17T22:24:17.701Z,22.98
2022-10-17T22:26:45.609Z,20.63
2022-10-17T22:29:12.883Z,19.33
2022-10-17T22:31:40.200Z,20.27
2022-10-17T22:34:08.012Z,17.83
2022-10-17T22:36:35.718Z,18.67
2022-10-17T22:39:04.123Z,17.52
2022-10-17T22:41:31.303Z,14.27
2022-10-17T22:43:58.434Z,14.90
2022-10-17T22:46:25.592Z,14.45
2022-10-17T22:48:52.665Z,12.75
2022-10-17T22:51:19.821Z,18.75
2022-10-17T22:53:46.971Z,20.80
2022-10-17T22:56:16.963Z,20.75
2022-10-17T22:58:44.238Z,17.00
2022-10-17T23:01:17.831Z,14.77
2022-10-17T23:03:45.291Z,12.50
2022-10-17T23:06:12.696Z,12.07
2022-10-17T23:08:40.380Z,16.67
2022-10-17T23:11:07.911Z,15.35
2022-10-17T23:13:35.568Z,17.85
2022-10-17T23:16:03.653Z,12.90
2022-10-17T23:21:03.084Z,11.90
2022-10-17T23:23:30.148Z,17.85
2022-10-17T23:26:08.124Z,12.35
2022-10-17T23:28:35.744Z,18.13
2022-10-17T23:31:17.649Z,13.05
2022-10-17T23:33:46.178Z,17.17
2022-10-17T23:36:14.952Z,15.70
2022-10-17T23:38:44.606Z,19.02
2022-10-17T23:41:12.261Z,29.58
2022-10-17T23:43:40.206Z,32.83
2022-10-17T23:46:07.713Z,16.70
2022-10-17T23:48:34.968Z,17.45
2022-10-17T23:51:02.151Z,15.90
2022-10-17T23:53:29.342Z,11.00
2022-10-17T23:55:56.787Z,15.75
2022-10-17T23:58:24.025Z,11.68
